createdAt,value
2018-05-17T00:01:18.931Z,27.40
2018-05-17T00:03:47.351Z,27.40
2018-05-17T00:06:15.677Z,27.40
2018-05-17T00:08:43.960Z,27.40
2018-05-17T00:11:12.223Z,27.40
2018-05-17T00:13:40.501Z,27.40
2018-05-17T00:16:08.690Z,27.40
2018-05-17T00:18:37.049Z,27.40
2018-05-17T00:21:05.368Z,27.40
2018-05-17T00:23:34.369Z,27.30
2018-05-17T00:26:03.524Z,27.30
2018-05-17T00:28:31.802Z,27.30
2018-05-17T00:31:00.291Z,27.30
2018-05-17T00:33:28.467Z,27.30
2018-05-17T00:35:56.627Z,27.30
2018-05-17T00:38:25.110Z,27.30
2018-05-17T00:40:53.384Z,27.30
2018-05-17T00:43:21.581Z,27.30
2018-05-17T00:45:49.740Z,27.30
2018-05-17T00:48:18.242Z,27.30
2018-05-17T00:50:47.493Z,27.30
2018-05-17T00:53:27.666Z,27.30
2018-05-17T00:55:55.950Z,27.30
2018-05-17T00:58:24.331Z,27.30
2018-05-17T01:00:52.808Z,27.30
2018-05-17T01:03:20.962Z,27.20
2018-05-17T01:05:49.248Z,27.20
2018-05-17T01:08:17.624Z,27.30
2018-05-17T01:10:45.842Z,27.20
2018-05-17T01:13:14.941Z,27.20
2018-05-17T01:15:43.265Z,27.20
2018-05-17T01:18:11.465Z,27.20
2018-05-17T01:20:39.713Z,27.20
2018-05-17T01:23:08.019Z,27.20
2018-05-17T01:25:37.192Z,27.20
2018-05-17T01:28:05.482Z,27.20
2018-05-17T01:30:33.956Z,27.20
2018-05-17T01:33:02.307Z,27.20
2018-05-17T01:35:30.611Z,27.20
2018-05-17T01:38:10.767Z,27.20
2018-05-17T01:40:39.189Z,27.20
2018-05-17T01:43:07.610Z,27.20
2018-05-17T01:45:35.899Z,27.10
2018-05-17T01:48:04.283Z,27.10
2018-05-17T01:50:32.470Z,27.10
2018-05-17T01:53:00.817Z,27.10
2018-05-17T01:55:28.984Z,27.10
2018-05-17T01:57:57.115Z,27.10
2018-05-17T02:00:25.983Z,27.10
2018-05-17T02:02:54.234Z,27.10
2018-05-17T02:05:22.465Z,27.10
2018-05-17T02:07:50.787Z,27.10
2018-05-17T02:10:19.044Z,27.10
2018-05-17T02:12:47.338Z,27.10
2018-05-17T02:15:15.618Z,27.10
2018-05-17T02:17:43.819Z,27.10
2018-05-17T02:20:12.975Z,27.10
2018-05-17T02:22:41.150Z,27.10
2018-05-17T02:25:09.431Z,27.10
2018-05-17T02:27:37.592Z,27.00
2018-05-17T02:30:05.883Z,27.10
2018-05-17T02:32:34.076Z,27.00
2018-05-17T02:35:02.442Z,27.00
2018-05-17T02:37:30.708Z,27.00
2018-05-17T02:39:58.978Z,27.00
2018-05-17T02:42:27.259Z,27.00
2018-05-17T02:44:55.547Z,27.00
2018-05-17T02:47:24.019Z,27.00
2018-05-17T02:49:52.282Z,27.00
2018-05-17T02:52:20.457Z,27.00
2018-05-17T02:54:48.593Z,27.00
2018-05-17T02:57:16.822Z,27.10
2018-05-17T02:59:46.625Z,27.00
2018-05-17T03:02:15.032Z,27.00
2018-05-17T03:04:43.918Z,27.10
2018-05-17T03:07:12.169Z,27.10
2018-05-17T03:09:40.563Z,27.10
2018-05-17T03:12:08.836Z,27.00
2018-05-17T03:14:37.005Z,27.00
2018-05-17T03:17:05.398Z,27.00
2018-05-17T03:19:33.860Z,27.00
2018-05-17T03:22:02.031Z,27.00
2018-05-17T03:24:30.308Z,27.00
2018-05-17T03:26:58.494Z,26.90
2018-05-17T03:29:26.639Z,26.90
2018-05-17T03:31:54.838Z,26.90
2018-05-17T03:34:23.096Z,26.90
2018-05-17T03:36:51.468Z,26.90
2018-05-17T03:39:19.664Z,26.90
2018-05-17T03:41:47.924Z,26.90
2018-05-17T03:44:16.207Z,26.90
2018-05-17T03:46:44.289Z,26.90
2018-05-17T03:49:12.749Z,27.00
2018-05-17T03:51:40.955Z,27.00
2018-05-17T03:54:10.075Z,27.00
2018-05-17T03:56:38.498Z,27.00
2018-05-17T03:59:06.677Z,27.00
2018-05-17T04:01:46.533Z,27.00
2018-05-17T04:04:26.287Z,26.90
2018-05-17T04:06:54.745Z,26.80
2018-05-17T04:09:23.038Z,26.70
2018-05-17T04:11:51.299Z,26.60
2018-05-17T04:14:19.484Z,26.40
2018-05-17T04:16:47.663Z,26.30
2018-05-17T04:19:16.039Z,26.30
2018-05-17T04:21:44.512Z,26.20
2018-05-17T04:24:14.222Z,26.10
2018-05-17T04:26:42.401Z,26.10
2018-05-17T04:29:10.732Z,26.10
2018-05-17T04:31:38.545Z,26.00
2018-05-17T04:34:06.404Z,25.90
2018-05-17T04:36:34.266Z,25.90
2018-05-17T04:39:02.201Z,25.80
2018-05-17T04:41:29.999Z,25.80
2018-05-17T04:43:57.764Z,25.80
2018-05-17T04:46:25.535Z,25.70
2018-05-17T04:48:53.303Z,25.70
2018-05-17T04:51:21.068Z,25.60
2018-05-17T04:53:48.845Z,25.60
2018-05-17T04:56:17.508Z,25.50
2018-05-17T04:58:45.372Z,25.50
2018-05-17T05:01:13.306Z,25.50
2018-05-17T05:03:41.174Z,25.50
2018-05-17T05:06:09.037Z,25.40
2018-05-17T05:08:36.902Z,25.40
2018-05-17T05:11:04.705Z,25.40
2018-05-17T05:13:32.636Z,25.40
2018-05-17T05:16:00.435Z,25.30
2018-05-17T05:18:28.301Z,25.30
2018-05-17T05:20:56.173Z,25.30
2018-05-17T05:23:24.100Z,25.20
2018-05-17T05:25:51.971Z,25.20
2018-05-17T05:28:19.833Z,25.20
2018-05-17T05:30:47.698Z,25.20
2018-05-17T05:33:16.335Z,25.20
2018-05-17T05:35:45.400Z,25.20
2018-05-17T05:38:14.386Z,25.10
2018-05-17T05:40:42.340Z,25.10
2018-05-17T05:43:11.200Z,25.10
2018-05-17T05:45:38.995Z,25.10
2018-05-17T05:48:06.968Z,25.00
2018-05-17T05:50:34.877Z,25.00
2018-05-17T05:53:02.693Z,25.00
2018-05-17T05:55:30.455Z,25.00
2018-05-17T05:57:58.254Z,25.00
2018-05-17T06:00:26.128Z,24.90
2018-05-17T06:02:53.952Z,24.90
2018-05-17T06:05:21.759Z,24.90
2018-05-17T06:07:49.619Z,24.80
2018-05-17T06:10:17.551Z,24.80
2018-05-17T06:12:45.352Z,24.80
2018-05-17T06:15:13.216Z,24.80
2018-05-17T06:17:41.149Z,24.80
2018-05-17T06:20:08.947Z,24.90
2018-05-17T06:22:36.782Z,25.00
2018-05-17T06:25:04.579Z,25.10
2018-05-17T06:27:32.409Z,25.20
2018-05-17T06:30:00.274Z,25.40
2018-05-17T06:32:28.180Z,25.40
2018-05-17T06:34:56.110Z,25.60
2018-05-17T06:37:24.011Z,25.70
2018-05-17T06:39:52.269Z,25.70
2018-05-17T06:42:21.142Z,25.90
2018-05-17T06:44:48.946Z,25.80
2018-05-17T06:47:16.751Z,26.00
2018-05-17T06:49:44.580Z,26.00
2018-05-17T06:52:12.504Z,26.00
2018-05-17T06:54:40.311Z,26.10
2018-05-17T06:57:08.108Z,26.10
2018-05-17T06:59:36.651Z,26.20
2018-05-17T07:02:04.515Z,26.10
2018-05-17T07:04:33.254Z,26.20
2018-05-17T07:07:01.339Z,26.20
2018-05-17T07:09:29.205Z,26.20
2018-05-17T07:11:57.108Z,26.30
2018-05-17T07:14:24.975Z,26.30
2018-05-17T07:16:52.843Z,26.30
2018-05-17T07:19:20.772Z,26.30
2018-05-17T07:21:48.741Z,26.30
2018-05-17T07:24:16.607Z,26.30
2018-05-17T07:26:44.474Z,26.40
2018-05-17T07:29:12.339Z,26.40
2018-05-17T07:31:40.314Z,26.40
2018-05-17T07:34:08.380Z,26.40
2018-05-17T07:36:36.279Z,26.40
2018-05-17T07:39:04.151Z,26.40
2018-05-17T07:41:32.081Z,26.40
2018-05-17T07:43:59.947Z,26.40
2018-05-17T07:46:28.028Z,26.50
2018-05-17T07:48:55.816Z,26.50
2018-05-17T07:51:23.767Z,26.50
2018-05-17T07:53:52.367Z,26.50
2018-05-17T07:56:20.202Z,26.50
2018-05-17T07:58:48.066Z,26.50
2018-05-17T08:01:15.931Z,26.50
2018-05-17T08:03:43.738Z,26.50
2018-05-17T08:06:11.609Z,26.50
2018-05-17T08:08:39.430Z,26.50
2018-05-17T08:11:07.294Z,26.50
2018-05-17T08:13:35.200Z,26.50
2018-05-17T08:16:02.974Z,26.50
2018-05-17T08:18:30.740Z,26.50
2018-05-17T08:20:58.657Z,26.50
2018-05-17T08:23:26.521Z,26.50
2018-05-17T08:25:54.389Z,26.50
2018-05-17T08:28:22.255Z,26.50
2018-05-17T08:30:50.056Z,26.60
2018-05-17T08:33:17.824Z,26.60
2018-05-17T08:35:45.752Z,26.60
2018-05-17T08:38:13.720Z,26.60
2018-05-17T08:40:41.589Z,26.60
2018-05-17T08:43:09.487Z,26.60
2018-05-17T08:45:37.458Z,26.60
2018-05-17T08:48:06.039Z,26.60
2018-05-17T08:50:33.972Z,26.60
2018-05-17T08:53:01.877Z,26.60
2018-05-17T08:55:29.740Z,26.60
2018-05-17T08:57:57.677Z,26.60
2018-05-17T09:00:25.539Z,26.60
2018-05-17T09:02:53.344Z,26.60
2018-05-17T09:05:22.193Z,26.60
2018-05-17T09:07:50.161Z,26.60
2018-05-17T09:10:18.027Z,26.60
2018-05-17T09:12:45.932Z,26.60
2018-05-17T09:15:13.799Z,26.60
2018-05-17T09:17:41.731Z,26.60
2018-05-17T09:20:09.644Z,26.60
2018-05-17T09:22:37.567Z,26.60
2018-05-17T09:25:05.429Z,26.60
2018-05-17T09:27:33.331Z,26.70
2018-05-17T09:30:01.263Z,26.70
2018-05-17T09:32:29.168Z,26.70
2018-05-17T09:34:57.040Z,26.70
2018-05-17T09:37:26.417Z,26.70
2018-05-17T09:39:54.367Z,26.70
2018-05-17T09:42:22.339Z,26.70
2018-05-17T09:44:51.247Z,26.70
2018-05-17T09:47:19.745Z,26.70
2018-05-17T09:49:47.674Z,26.70
2018-05-17T09:52:15.439Z,26.70
2018-05-17T09:54:43.305Z,26.70
2018-05-17T09:57:11.108Z,26.70
2018-05-17T09:59:39.242Z,26.70
2018-05-17T10:02:07.927Z,26.70
2018-05-17T10:04:35.793Z,26.70
2018-05-17T10:07:03.666Z,26.70
2018-05-17T10:09:31.453Z,26.70
2018-05-17T10:11:59.226Z,26.70
2018-05-17T10:14:27.091Z,26.70
2018-05-17T10:16:54.961Z,26.70
2018-05-17T10:19:22.722Z,26.70
2018-05-17T10:21:51.440Z,26.70
2018-05-17T10:24:19.275Z,26.70
2018-05-17T10:26:47.140Z,26.70
2018-05-17T10:29:15.006Z,26.60
2018-05-17T10:31:42.935Z,26.60
2018-05-17T10:34:10.716Z,26.60
2018-05-17T10:36:38.566Z,26.60
2018-05-17T10:39:06.433Z,26.60
2018-05-17T10:41:34.231Z,26.60
2018-05-17T10:44:02.100Z,26.70
2018-05-17T10:46:30.032Z,26.70
2018-05-17T10:48:57.920Z,26.70
2018-05-17T10:51:25.865Z,26.70
2018-05-17T10:53:53.730Z,26.70
2018-05-17T10:56:21.537Z,26.70
2018-05-17T10:58:49.360Z,26.70
2018-05-17T11:01:17.228Z,26.70
2018-05-17T11:03:45.027Z,26.70
2018-05-17T11:06:12.859Z,26.70
2018-05-17T11:08:40.623Z,26.70
2018-05-17T11:11:08.487Z,26.70
2018-05-17T11:13:36.287Z,26.70
2018-05-17T11:16:04.150Z,26.80
2018-05-17T11:18:31.982Z,26.80
2018-05-17T11:20:59.850Z,26.80
2018-05-17T11:23:27.715Z,26.80
2018-05-17T11:25:55.663Z,26.80
2018-05-17T11:28:23.550Z,26.80
2018-05-17T11:30:51.417Z,26.80
2018-05-17T11:33:19.281Z,26.80
2018-05-17T11:35:47.149Z,26.80
2018-05-17T11:38:14.952Z,26.80
2018-05-17T11:40:42.884Z,26.80
2018-05-17T11:43:10.754Z,26.80
2018-05-17T11:45:38.548Z,26.80
2018-05-17T11:48:06.415Z,26.80
2018-05-17T11:50:34.281Z,26.80
2018-05-17T11:53:02.215Z,26.80
2018-05-17T11:55:30.016Z,26.80
2018-05-17T11:57:57.783Z,26.80
2018-05-17T12:00:25.708Z,26.80
2018-05-17T12:02:53.573Z,26.80
2018-05-17T12:05:21.439Z,26.80
2018-05-17T12:07:49.240Z,26.80
2018-05-17T12:10:17.004Z,26.80
2018-05-17T12:12:44.936Z,26.80
2018-05-17T12:15:12.904Z,26.80
2018-05-17T12:17:40.707Z,26.80
2018-05-17T12:20:08.568Z,26.80
2018-05-17T12:22:36.503Z,26.80
2018-05-17T12:25:04.472Z,26.80
2018-05-17T12:27:32.272Z,26.90
2018-05-17T12:30:00.204Z,26.90
2018-05-17T12:32:28.070Z,26.90
2018-05-17T12:34:56.037Z,26.80
2018-05-17T12:37:23.800Z,26.90
2018-05-17T12:39:51.672Z,26.90
2018-05-17T12:42:19.467Z,26.90
2018-05-17T12:44:47.299Z,26.90
2018-05-17T12:47:15.165Z,26.90
2018-05-17T12:49:43.132Z,26.90
2018-05-17T12:52:10.999Z,26.90
2018-05-17T12:54:38.903Z,26.90
2018-05-17T12:57:07.551Z,26.90
2018-05-17T12:59:35.520Z,26.90
2018-05-17T13:02:03.384Z,26.90
2018-05-17T13:04:31.292Z,26.90
2018-05-17T13:06:59.274Z,26.90
2018-05-17T13:09:27.188Z,26.90
2018-05-17T13:11:55.056Z,26.90
2018-05-17T13:14:22.960Z,26.90
2018-05-17T13:16:52.260Z,26.80
2018-05-17T13:19:20.058Z,26.80
2018-05-17T13:21:48.588Z,26.80
2018-05-17T13:24:16.536Z,26.80
2018-05-17T13:26:44.339Z,26.80
2018-05-17T13:29:12.269Z,26.80
2018-05-17T13:31:40.159Z,26.80
2018-05-17T13:34:08.002Z,26.80
2018-05-17T13:36:35.806Z,26.80
2018-05-17T13:39:03.733Z,26.80
2018-05-17T13:41:31.600Z,26.80
2018-05-17T13:43:59.465Z,26.70
2018-05-17T13:46:27.333Z,26.70
2018-05-17T13:48:55.131Z,26.70
2018-05-17T13:51:23.000Z,26.70
2018-05-17T13:53:50.864Z,26.70
2018-05-17T13:56:18.796Z,26.70
2018-05-17T13:58:46.662Z,26.70
2018-05-17T14:01:14.529Z,26.70
2018-05-17T14:03:42.332Z,26.70
2018-05-17T14:06:10.264Z,26.70
2018-05-17T14:08:38.129Z,26.70
2018-05-17T14:11:06.096Z,26.70
2018-05-17T14:13:33.963Z,26.70
2018-05-17T14:16:01.931Z,26.60
2018-05-17T14:18:29.797Z,26.70
2018-05-17T14:20:57.767Z,26.70
2018-05-17T14:23:25.568Z,26.70
2018-05-17T14:25:53.496Z,26.60
2018-05-17T14:28:21.301Z,26.60
2018-05-17T14:30:49.164Z,26.60
2018-05-17T14:33:17.037Z,26.60
2018-05-17T14:35:44.962Z,26.60
2018-05-17T14:38:12.773Z,26.60
2018-05-17T14:40:40.627Z,26.60
2018-05-17T14:43:08.496Z,26.60
2018-05-17T14:45:36.431Z,26.60
2018-05-17T14:48:04.294Z,26.60
2018-05-17T14:50:32.161Z,26.60
2018-05-17T14:53:00.031Z,26.60
2018-05-17T14:55:27.890Z,26.60
2018-05-17T14:57:55.757Z,26.60
2018-05-17T15:00:23.624Z,26.50
2018-05-17T15:02:51.429Z,26.60
2018-05-17T15:05:19.255Z,26.50
2018-05-17T15:07:47.057Z,26.50
2018-05-17T15:10:14.925Z,26.50
2018-05-17T15:12:42.841Z,26.50
2018-05-17T15:15:10.653Z,26.50
2018-05-17T15:17:38.586Z,26.50
2018-05-17T15:20:06.449Z,26.50
2018-05-17T15:22:34.251Z,26.50
2018-05-17T15:25:02.097Z,26.50
2018-05-17T15:27:29.969Z,26.50
2018-05-17T15:29:58.204Z,26.40
2018-05-17T15:32:26.191Z,26.30
2018-05-17T15:34:54.681Z,26.10
2018-05-17T15:37:22.980Z,26.00
2018-05-17T15:39:51.153Z,25.90
2018-05-17T15:42:19.024Z,25.70
2018-05-17T15:44:46.891Z,25.70
2018-05-17T15:47:14.822Z,25.70
2018-05-17T15:49:42.628Z,25.70
2018-05-17T15:52:10.553Z,25.80
2018-05-17T15:54:38.423Z,25.90
2018-05-17T15:57:06.286Z,26.00
2018-05-17T15:59:34.087Z,26.00
2018-05-17T16:02:02.020Z,26.00
2018-05-17T16:04:29.884Z,26.00
2018-05-17T16:06:57.752Z,26.00
2018-05-17T16:09:25.641Z,26.00
2018-05-17T16:11:53.420Z,26.10
2018-05-17T16:14:21.248Z,26.10
2018-05-17T16:16:49.114Z,26.10
2018-05-17T16:19:16.920Z,26.10
2018-05-17T16:21:44.850Z,26.10
2018-05-17T16:24:12.648Z,26.20
2018-05-17T16:26:41.192Z,26.20
2018-05-17T16:29:09.499Z,26.20
2018-05-17T16:31:37.645Z,26.20
2018-05-17T16:34:13.930Z,26.20
2018-05-17T16:36:42.488Z,26.20
2018-05-17T16:39:15.110Z,26.30
2018-05-17T16:41:51.303Z,26.30
2018-05-17T16:44:20.975Z,26.30
2018-05-17T16:46:49.813Z,26.20
2018-05-17T16:49:18.464Z,26.20
2018-05-17T16:51:46.524Z,26.10
2018-05-17T16:54:14.491Z,26.00
2018-05-17T16:56:42.464Z,25.90
2018-05-17T16:59:10.385Z,25.70
2018-05-17T17:01:38.960Z,25.70
2018-05-17T17:04:07.298Z,25.60
2018-05-17T17:06:35.622Z,25.50
2018-05-17T17:09:03.451Z,25.40
2018-05-17T17:11:33.181Z,25.30
2018-05-17T17:14:01.165Z,25.30
2018-05-17T17:16:29.533Z,25.20
2018-05-17T17:18:58.247Z,25.10
2018-05-17T17:21:26.047Z,25.10
2018-05-17T17:23:54.074Z,25.00
2018-05-17T17:26:21.932Z,25.00
2018-05-17T17:28:50.131Z,25.00
2018-05-17T17:31:17.970Z,25.00
2018-05-17T17:33:45.775Z,25.20
2018-05-17T17:36:13.746Z,25.30
2018-05-17T17:38:41.772Z,25.30
2018-05-17T17:41:09.742Z,25.40
2018-05-17T17:43:37.607Z,25.50
2018-05-17T17:46:05.406Z,25.60
2018-05-17T17:48:33.339Z,25.70
2018-05-17T17:51:01.512Z,25.70
2018-05-17T17:53:29.311Z,25.80
2018-05-17T17:55:57.143Z,25.80
2018-05-17T17:58:25.025Z,25.80
2018-05-17T18:00:53.598Z,25.80
2018-05-17T18:03:21.392Z,25.80
2018-05-17T18:05:49.324Z,25.80
2018-05-17T18:08:17.190Z,25.90
2018-05-17T18:10:45.056Z,25.90
2018-05-17T18:13:12.861Z,25.90
2018-05-17T18:15:40.790Z,25.90
2018-05-17T18:18:08.594Z,25.90
2018-05-17T18:20:37.238Z,25.90
2018-05-17T18:23:05.207Z,25.90
2018-05-17T18:25:33.073Z,25.90
2018-05-17T18:28:00.876Z,25.90
2018-05-17T18:30:28.739Z,26.00
2018-05-17T18:32:56.670Z,26.00
2018-05-17T18:35:25.132Z,26.00
2018-05-17T18:37:53.311Z,26.00
2018-05-17T18:40:21.603Z,26.00
2018-05-17T18:42:49.816Z,26.00
2018-05-17T18:45:18.076Z,26.00
2018-05-17T18:47:47.837Z,26.00
2018-05-17T18:50:16.885Z,26.00
2018-05-17T18:52:44.948Z,26.00
2018-05-17T18:55:13.135Z,26.00
2018-05-17T18:57:41.000Z,26.00
2018-05-17T19:00:08.914Z,26.00
2018-05-17T19:02:37.521Z,26.00
2018-05-17T19:05:05.383Z,26.00
2018-05-17T19:07:33.251Z,26.00
2018-05-17T19:10:01.343Z,26.00
2018-05-17T19:12:29.108Z,26.00
2018-05-17T19:14:57.053Z,26.00
2018-05-17T19:17:24.852Z,26.00
2018-05-17T19:19:52.728Z,26.00
2018-05-17T19:22:20.584Z,26.00
2018-05-17T19:24:48.452Z,26.00
2018-05-17T19:27:16.325Z,26.00
2018-05-17T19:29:44.250Z,26.00
2018-05-17T19:32:12.116Z,26.00
2018-05-17T19:34:40.149Z,26.00
2018-05-17T19:37:08.082Z,26.00
2018-05-17T19:39:36.021Z,26.00
2018-05-17T19:42:04.299Z,26.00
2018-05-17T19:44:32.266Z,26.00
2018-05-17T19:47:00.132Z,26.00
2018-05-17T19:49:28.204Z,26.00
2018-05-17T19:51:56.068Z,26.00
2018-05-17T19:54:23.935Z,26.00
2018-05-17T19:56:51.734Z,26.00
2018-05-17T19:59:19.601Z,26.00
2018-05-17T20:01:47.535Z,26.00
2018-05-17T20:04:15.501Z,26.00
2018-05-17T20:06:43.367Z,26.00
2018-05-17T20:09:11.336Z,26.00
2018-05-17T20:11:39.993Z,26.00
2018-05-17T20:14:07.888Z,26.00
2018-05-17T20:16:35.757Z,25.90
2018-05-17T20:19:03.725Z,25.90
2018-05-17T20:21:31.590Z,25.90
2018-05-17T20:23:59.559Z,25.90
2018-05-17T20:26:27.360Z,25.90
2018-05-17T20:28:55.227Z,25.90
2018-05-17T20:31:23.155Z,25.90
2018-05-17T20:33:51.123Z,26.00
2018-05-17T20:36:19.712Z,26.00
2018-05-17T20:38:47.677Z,25.90
2018-05-17T20:41:15.544Z,26.00
2018-05-17T20:43:43.443Z,26.00
2018-05-17T20:46:11.312Z,26.00
2018-05-17T20:48:39.243Z,26.00
2018-05-17T20:51:07.049Z,26.00
2018-05-17T20:53:34.919Z,26.00
2018-05-17T20:56:02.696Z,26.00
2018-05-17T20:58:30.457Z,26.00
2018-05-17T21:00:58.522Z,26.00
2018-05-17T21:03:26.674Z,26.00
2018-05-17T21:05:55.012Z,26.00
2018-05-17T21:08:23.243Z,26.00
2018-05-17T21:10:51.528Z,26.00
2018-05-17T21:13:19.716Z,26.00
2018-05-17T21:15:48.768Z,26.00
2018-05-17T21:18:16.949Z,26.00
2018-05-17T21:20:46.771Z,25.90
2018-05-17T21:23:14.867Z,25.90
2018-05-17T21:25:43.720Z,25.90
2018-05-17T21:28:11.800Z,25.90
2018-05-17T21:30:39.869Z,25.90
2018-05-17T21:33:08.239Z,25.90
2018-05-17T21:35:36.839Z,25.90
2018-05-17T21:38:05.095Z,25.90
2018-05-17T21:40:33.328Z,25.90
2018-05-17T21:43:01.659Z,25.90
2018-05-17T21:45:30.062Z,25.90
2018-05-17T21:47:58.943Z,25.90
2018-05-17T21:50:27.091Z,25.90
2018-05-17T21:52:55.482Z,25.90
2018-05-17T21:55:23.806Z,25.90
2018-05-17T21:57:51.976Z,25.90
2018-05-17T22:00:20.298Z,25.90
2018-05-17T22:02:48.718Z,25.90
2018-05-17T22:05:17.880Z,25.90
2018-05-17T22:07:46.030Z,25.90
2018-05-17T22:10:14.193Z,25.80
2018-05-17T22:12:42.332Z,25.70
2018-05-17T22:15:11.242Z,25.60
2018-05-17T22:17:39.661Z,25.60
2018-05-17T22:20:08.372Z,25.60
2018-05-17T22:22:36.543Z,25.50
2018-05-17T22:25:04.812Z,25.60
2018-05-17T22:27:33.067Z,25.60
2018-05-17T22:30:01.374Z,25.60
2018-05-17T22:32:30.349Z,25.60
2018-05-17T22:34:58.720Z,25.60
2018-05-17T22:37:26.991Z,25.60
2018-05-17T22:39:55.269Z,25.60
2018-05-17T22:42:23.553Z,25.70
2018-05-17T22:44:51.744Z,25.70
2018-05-17T22:47:20.297Z,25.70
2018-05-17T22:49:48.578Z,25.70
2018-05-17T22:52:16.859Z,25.70
2018-05-17T22:54:45.047Z,25.70
2018-05-17T22:57:13.411Z,25.70
2018-05-17T22:59:41.803Z,25.70
2018-05-17T23:02:09.945Z,25.70
2018-05-17T23:04:38.230Z,25.70
2018-05-17T23:07:06.485Z,25.70
2018-05-17T23:09:34.779Z,25.70
2018-05-17T23:12:03.059Z,25.70
2018-05-17T23:14:31.329Z,25.70
2018-05-17T23:16:59.501Z,25.70
2018-05-17T23:19:27.681Z,25.70
2018-05-17T23:21:55.946Z,25.60
2018-05-17T23:24:24.135Z,25.60
2018-05-17T23:26:52.292Z,25.60
2018-05-17T23:29:28.319Z,25.60
2018-05-17T23:31:56.545Z,25.60
2018-05-17T23:34:24.815Z,25.60
2018-05-17T23:36:53.183Z,25.60
2018-05-17T23:39:21.464Z,25.60
2018-05-17T23:41:49.639Z,25.60
2018-05-17T23:44:17.916Z,25.60
2018-05-17T23:46:46.197Z,25.60
2018-05-17T23:49:14.478Z,25.60
2018-05-17T23:51:42.641Z,25.60
2018-05-17T23:54:10.922Z,25.60
2018-05-17T23:56:39.243Z,25.60
2018-05-17T23:59:07.511Z,25.60
